createdAt,value
2018-06-02T00:02:11.530Z,8.80
2018-06-02T00:04:39.928Z,8.23
2018-06-02T00:07:07.422Z,8.43
2018-06-02T00:09:35.667Z,8.75
2018-06-02T00:12:03.144Z,8.88
2018-06-02T00:14:30.637Z,9.40
2018-06-02T00:16:58.121Z,9.98
2018-06-02T00:19:26.373Z,8.55
2018-06-02T00:21:53.849Z,9.00
2018-06-02T00:24:21.334Z,9.65
2018-06-02T00:26:48.805Z,9.98
2018-06-02T00:29:16.340Z,9.88
2018-06-02T00:31:43.818Z,11.63
2018-06-02T00:34:11.396Z,10.43
2018-06-02T00:36:39.065Z,10.82
2018-06-02T00:39:06.624Z,10.20
2018-06-02T00:41:34.199Z,10.18
2018-06-02T00:44:01.788Z,10.68
2018-06-02T00:46:29.344Z,11.38
2018-06-02T00:48:56.833Z,10.63
2018-06-02T00:51:24.308Z,11.70
2018-06-02T00:53:51.791Z,11.07
2018-06-02T00:56:19.345Z,11.10
2018-06-02T00:58:46.848Z,11.70
2018-06-02T01:01:15.100Z,12.82
2018-06-02T01:03:42.672Z,11.70
2018-06-02T01:06:10.154Z,10.88
2018-06-02T01:08:37.692Z,11.65
2018-06-02T01:11:05.178Z,11.48
2018-06-02T01:13:32.657Z,12.13
2018-06-02T01:16:00.142Z,10.90
2018-06-02T01:18:27.623Z,11.93
2018-06-02T01:20:55.223Z,11.82
2018-06-02T01:23:22.637Z,11.40
2018-06-02T01:25:50.125Z,11.27
2018-06-02T01:28:17.643Z,11.27
2018-06-02T01:30:45.125Z,11.18
2018-06-02T01:33:12.709Z,10.65
2018-06-02T01:35:40.724Z,10.60
2018-06-02T01:38:08.271Z,10.57
2018-06-02T01:40:35.745Z,10.45
2018-06-02T01:43:03.240Z,10.60
2018-06-02T01:45:31.501Z,11.63
2018-06-02T01:47:58.972Z,10.68
2018-06-02T01:50:26.461Z,10.25
2018-06-02T01:52:53.944Z,11.95
2018-06-02T01:55:21.432Z,9.77
2018-06-02T01:57:49.764Z,10.00
2018-06-02T02:00:17.250Z,11.02
2018-06-02T02:02:44.740Z,10.07
2018-06-02T02:05:12.230Z,10.47
2018-06-02T02:07:40.476Z,10.57
2018-06-02T02:10:07.949Z,9.60
2018-06-02T02:12:35.435Z,9.55
2018-06-02T02:15:02.978Z,9.73
2018-06-02T02:17:30.481Z,9.90
2018-06-02T02:19:57.958Z,9.85
2018-06-02T02:22:25.432Z,10.13
2018-06-02T02:24:53.687Z,10.35
2018-06-02T02:27:21.182Z,9.75
2018-06-02T02:29:48.722Z,10.43
2018-06-02T02:32:16.202Z,9.40
2018-06-02T02:34:43.696Z,9.60
2018-06-02T02:37:11.248Z,10.35
2018-06-02T02:39:38.736Z,9.50
2018-06-02T02:42:06.265Z,10.40
2018-06-02T02:44:33.838Z,10.82
2018-06-02T02:47:01.317Z,10.70
2018-06-02T02:49:28.788Z,10.93
2018-06-02T02:51:56.350Z,11.00
2018-06-02T02:54:23.834Z,10.55
2018-06-02T02:56:51.316Z,11.05
2018-06-02T02:59:18.798Z,10.45
2018-06-02T03:01:46.297Z,9.73
2018-06-02T03:04:13.789Z,10.68
2018-06-02T03:06:41.278Z,10.90
2018-06-02T03:09:08.855Z,10.68
2018-06-02T03:11:36.337Z,11.07
2018-06-02T03:14:03.825Z,11.40
2018-06-02T03:16:31.330Z,11.30
2018-06-02T03:18:58.810Z,11.77
2018-06-02T03:21:26.295Z,11.52
2018-06-02T03:23:53.789Z,10.90
2018-06-02T03:26:21.266Z,11.45
2018-06-02T03:28:48.817Z,12.07
2018-06-02T03:31:16.321Z,12.23
2018-06-02T03:33:43.801Z,12.07
2018-06-02T03:36:12.063Z,11.70
2018-06-02T03:38:39.589Z,13.45
2018-06-02T03:41:07.080Z,13.32
2018-06-02T03:43:34.561Z,13.68
2018-06-02T03:46:02.048Z,15.20
2018-06-02T03:48:29.546Z,15.83
2018-06-02T03:50:57.878Z,16.08
2018-06-02T03:53:25.365Z,16.80
2018-06-02T03:55:52.872Z,16.27
2018-06-02T03:58:21.137Z,17.45
2018-06-02T04:00:48.616Z,16.55
2018-06-02T04:03:16.111Z,17.48
2018-06-02T04:05:44.447Z,18.10
2018-06-02T04:08:12.024Z,18.05
2018-06-02T04:10:39.497Z,17.27
2018-06-02T04:13:07.001Z,19.67
2018-06-02T04:15:35.341Z,18.65
2018-06-02T04:18:02.918Z,18.20
2018-06-02T04:20:30.413Z,18.20
2018-06-02T04:22:57.896Z,17.83
2018-06-02T04:25:25.383Z,18.83
2018-06-02T04:27:53.621Z,18.05
2018-06-02T04:30:26.924Z,18.40
2018-06-02T04:32:54.400Z,18.40
2018-06-02T04:35:21.896Z,18.20
2018-06-02T04:37:49.381Z,19.23
2018-06-02T04:40:17.713Z,20.20
2018-06-02T04:42:45.280Z,19.62
2018-06-02T04:45:12.772Z,20.17
2018-06-02T04:47:40.282Z,20.52
2018-06-02T04:50:07.765Z,20.05
2018-06-02T04:52:36.034Z,22.15
2018-06-02T04:55:03.575Z,23.27
2018-06-02T04:57:31.063Z,22.13
2018-06-02T04:59:58.615Z,23.92
2018-06-02T05:02:26.188Z,23.30
2018-06-02T05:04:53.681Z,24.23
2018-06-02T05:07:21.166Z,24.00
2018-06-02T05:09:48.664Z,25.50
2018-06-02T05:12:16.934Z,25.00
2018-06-02T05:14:44.441Z,24.03
2018-06-02T05:17:11.979Z,26.25
2018-06-02T05:19:39.633Z,25.37
2018-06-02T05:22:07.117Z,25.50
2018-06-02T05:24:34.654Z,25.73
2018-06-02T05:27:02.217Z,24.52
2018-06-02T05:29:29.815Z,25.73
2018-06-02T05:31:57.301Z,26.40
2018-06-02T05:34:24.815Z,25.63
2018-06-02T05:36:52.300Z,24.80
2018-06-02T05:39:19.883Z,25.23
2018-06-02T05:41:47.396Z,24.55
2018-06-02T05:44:15.681Z,25.00
2018-06-02T05:46:43.222Z,24.30
2018-06-02T05:49:10.799Z,25.40
2018-06-02T05:51:38.307Z,24.47
2018-06-02T05:54:06.642Z,23.83
2018-06-02T05:56:34.208Z,24.67
2018-06-02T05:59:01.893Z,25.62
2018-06-02T06:01:29.395Z,23.43
2018-06-02T06:03:56.870Z,24.35
2018-06-02T06:06:24.405Z,24.10
2018-06-02T06:08:51.893Z,24.83
2018-06-02T06:11:19.439Z,24.93
2018-06-02T06:13:47.095Z,23.90
2018-06-02T06:16:14.581Z,23.30
2018-06-02T06:18:42.092Z,23.70
2018-06-02T06:21:09.585Z,23.60
2018-06-02T06:23:37.929Z,23.07
2018-06-02T06:26:05.416Z,22.65
2018-06-02T06:28:32.960Z,22.50
2018-06-02T06:31:00.442Z,21.92
2018-06-02T06:33:27.945Z,22.25
2018-06-02T06:35:56.288Z,23.00
2018-06-02T06:38:23.911Z,20.50
2018-06-02T06:40:51.568Z,20.83
2018-06-02T06:43:19.153Z,20.25
2018-06-02T06:45:46.690Z,19.87
2018-06-02T06:48:14.175Z,18.50
2018-06-02T06:50:41.715Z,17.85
2018-06-02T06:53:09.955Z,16.30
2018-06-02T06:55:37.485Z,16.63
2018-06-02T06:58:04.984Z,16.77
2018-06-02T07:00:32.537Z,14.97
2018-06-02T07:03:00.100Z,14.93
2018-06-02T07:05:27.884Z,13.98
2018-06-02T07:07:55.380Z,14.40
2018-06-02T07:10:23.001Z,14.37
2018-06-02T07:12:51.239Z,14.23
2018-06-02T07:15:18.788Z,12.77
2018-06-02T07:17:46.458Z,13.73
2018-06-02T07:20:14.065Z,13.20
2018-06-02T07:22:41.651Z,12.45
2018-06-02T07:25:09.298Z,12.07
2018-06-02T07:27:37.647Z,12.30
2018-06-02T07:30:05.141Z,11.23
2018-06-02T07:32:32.642Z,11.87
2018-06-02T07:35:00.140Z,11.12
2018-06-02T07:37:28.471Z,10.87
2018-06-02T07:39:56.130Z,11.30
2018-06-02T07:42:23.682Z,10.85
2018-06-02T07:44:51.182Z,9.87
2018-06-02T07:47:18.788Z,9.50
2018-06-02T07:49:46.379Z,10.50
2018-06-02T07:52:13.926Z,9.27
2018-06-02T07:54:41.482Z,8.98
2018-06-02T07:57:09.509Z,8.40
2018-06-02T07:59:36.984Z,9.30
2018-06-02T08:02:05.334Z,8.83
2018-06-02T08:04:32.895Z,8.90
2018-06-02T08:07:00.611Z,8.52
2018-06-02T08:09:28.082Z,8.33
2018-06-02T08:11:55.573Z,8.23
2018-06-02T08:14:23.112Z,8.93
2018-06-02T08:16:50.635Z,8.10
2018-06-02T08:19:18.170Z,8.13
2018-06-02T08:21:46.548Z,8.00
2018-06-02T08:24:14.136Z,7.90
2018-06-02T08:26:41.688Z,8.43
2018-06-02T08:29:09.374Z,8.27
2018-06-02T08:31:36.958Z,7.80
2018-06-02T08:34:04.475Z,8.53
2018-06-02T08:36:31.960Z,17.23
2018-06-02T08:38:59.533Z,20.13
2018-06-02T08:41:26.997Z,22.92
2018-06-02T08:43:54.486Z,62.55
2018-06-02T08:46:22.074Z,36.00
2018-06-02T08:48:49.548Z,23.30
2018-06-02T08:51:17.800Z,21.87
2018-06-02T08:53:45.274Z,27.13
2018-06-02T08:56:12.851Z,21.70
2018-06-02T08:58:40.336Z,20.40
2018-06-02T09:01:07.850Z,20.07
2018-06-02T09:03:36.164Z,20.47
2018-06-02T09:06:03.645Z,17.40
2018-06-02T09:08:31.209Z,20.17
2018-06-02T09:10:58.688Z,23.43
2018-06-02T09:13:26.205Z,24.83
2018-06-02T09:15:53.718Z,23.60
2018-06-02T09:18:21.209Z,18.80
2018-06-02T09:20:48.740Z,16.40
2018-06-02T09:23:16.240Z,15.70
2018-06-02T09:25:43.826Z,15.47
2018-06-02T09:28:11.396Z,16.70
2018-06-02T09:30:38.990Z,16.03
2018-06-02T09:33:06.496Z,17.33
2018-06-02T09:35:34.897Z,15.67
2018-06-02T09:38:02.393Z,14.13
2018-06-02T09:40:30.044Z,16.60
2018-06-02T09:42:57.581Z,23.27
2018-06-02T09:45:25.837Z,13.63
2018-06-02T09:47:53.702Z,18.53
2018-06-02T09:50:21.242Z,13.03
2018-06-02T09:52:48.937Z,14.17
2018-06-02T09:55:17.453Z,13.13
2018-06-02T09:57:45.055Z,12.00
2018-06-02T10:00:12.795Z,11.67
2018-06-02T10:02:40.501Z,11.93
2018-06-02T10:05:08.023Z,13.53
2018-06-02T10:07:35.605Z,14.20
2018-06-02T10:10:03.169Z,16.53
2018-06-02T10:12:30.789Z,14.43
2018-06-02T10:14:58.320Z,18.30
2018-06-02T10:17:25.943Z,15.07
2018-06-02T10:19:54.297Z,15.07
2018-06-02T10:22:21.857Z,15.53
2018-06-02T10:24:49.353Z,15.93
2018-06-02T10:27:16.956Z,14.57
2018-06-02T10:29:45.273Z,15.43
2018-06-02T10:32:12.790Z,14.57
2018-06-02T10:34:40.361Z,14.93
2018-06-02T10:37:10.136Z,12.40
2018-06-02T10:39:37.741Z,13.53
2018-06-02T10:42:05.242Z,17.60
2018-06-02T10:44:32.787Z,27.83
2018-06-02T10:47:01.292Z,24.13
2018-06-02T10:49:28.814Z,31.92
2018-06-02T10:51:56.393Z,36.77
2018-06-02T10:54:23.870Z,34.40
2018-06-02T10:56:51.416Z,30.95
2018-06-02T10:59:19.774Z,25.03
2018-06-02T11:01:47.498Z,19.30
2018-06-02T11:04:16.506Z,21.80
2018-06-02T11:06:44.123Z,20.90
2018-06-02T11:09:11.786Z,13.60
2018-06-02T11:11:39.323Z,12.33
2018-06-02T11:14:06.797Z,10.93
2018-06-02T11:16:34.300Z,13.50
2018-06-02T11:19:01.884Z,7.65
2018-06-02T11:21:29.429Z,8.20
2018-06-02T11:23:57.049Z,9.15
2018-06-02T11:26:24.760Z,8.30
2018-06-02T11:28:53.133Z,7.73
2018-06-02T11:31:21.387Z,9.43
2018-06-02T11:33:48.929Z,7.37
2018-06-02T11:36:16.490Z,7.20
2018-06-02T11:38:44.189Z,7.60
2018-06-02T11:41:11.868Z,8.60
2018-06-02T11:43:39.407Z,9.60
2018-06-02T11:46:07.660Z,11.10
2018-06-02T11:48:35.134Z,10.37
2018-06-02T11:51:03.556Z,11.43
2018-06-02T11:53:31.797Z,10.13
2018-06-02T11:55:59.288Z,10.88
2018-06-02T11:58:27.573Z,12.23
2018-06-02T12:00:55.104Z,14.95
2018-06-02T12:03:22.647Z,23.00
2018-06-02T12:05:50.960Z,13.10
2018-06-02T12:08:18.528Z,13.67
2018-06-02T12:10:46.091Z,12.73
2018-06-02T12:13:13.694Z,12.87
2018-06-02T12:15:41.227Z,13.53
2018-06-02T12:18:08.713Z,12.35
2018-06-02T12:20:36.228Z,14.30
2018-06-02T12:23:03.669Z,14.00
2018-06-02T12:25:31.152Z,11.63
2018-06-02T12:27:58.648Z,12.80
2018-06-02T12:30:27.069Z,10.63
2018-06-02T12:32:55.462Z,10.73
2018-06-02T12:35:23.706Z,12.50
2018-06-02T12:37:51.238Z,10.23
2018-06-02T12:40:18.822Z,11.68
2018-06-02T12:42:46.421Z,11.10
2018-06-02T12:45:13.914Z,10.20
2018-06-02T12:47:42.195Z,9.93
2018-06-02T12:50:09.643Z,10.57
2018-06-02T12:52:37.131Z,10.73
2018-06-02T12:55:04.626Z,11.82
2018-06-02T12:57:32.944Z,11.75
2018-06-02T13:00:00.520Z,13.00
2018-06-02T13:02:28.093Z,13.52
2018-06-02T13:04:55.589Z,12.90
2018-06-02T13:07:23.092Z,13.07
2018-06-02T13:09:50.687Z,12.77
2018-06-02T13:12:19.704Z,13.80
2018-06-02T13:14:47.293Z,13.23
2018-06-02T13:17:14.876Z,18.92
2018-06-02T13:19:42.379Z,14.33
2018-06-02T13:22:10.055Z,15.67
2018-06-02T13:24:37.556Z,16.47
2018-06-02T13:27:05.029Z,14.23
2018-06-02T13:29:32.514Z,14.37
2018-06-02T13:32:00.013Z,16.70
2018-06-02T13:34:27.534Z,16.10
2018-06-02T13:36:55.029Z,15.57
2018-06-02T13:39:22.512Z,15.07
2018-06-02T13:41:49.999Z,15.27
2018-06-02T13:44:17.525Z,15.30
2018-06-02T13:46:45.044Z,15.70
2018-06-02T13:49:12.546Z,16.60
2018-06-02T13:51:40.131Z,17.30
2018-06-02T13:54:08.376Z,18.73
2018-06-02T13:56:35.857Z,17.27
2018-06-02T13:59:03.396Z,19.93
2018-06-02T14:01:30.876Z,19.33
2018-06-02T14:03:58.391Z,19.37
2018-06-02T14:06:26.816Z,24.27
2018-06-02T14:08:54.385Z,22.80
2018-06-02T14:11:21.963Z,22.37
2018-06-02T14:13:49.545Z,23.27
2018-06-02T14:16:17.037Z,22.07
2018-06-02T14:18:44.775Z,24.40
2018-06-02T14:21:12.233Z,27.47
2018-06-02T14:23:39.717Z,26.07
2018-06-02T14:26:07.267Z,23.33
2018-06-02T14:28:35.505Z,21.20
2018-06-02T14:31:03.000Z,22.97
2018-06-02T14:33:30.546Z,22.90
2018-06-02T14:35:58.097Z,23.20
2018-06-02T14:38:25.590Z,23.20
2018-06-02T14:40:53.873Z,25.23
2018-06-02T14:43:21.365Z,25.08
2018-06-02T14:45:48.848Z,26.98
2018-06-02T14:48:17.123Z,27.23
2018-06-02T14:50:44.603Z,27.70
2018-06-02T14:53:12.851Z,28.38
2018-06-02T14:55:40.413Z,27.27
2018-06-02T14:58:08.009Z,31.47
2018-06-02T15:00:35.499Z,25.00
2018-06-02T15:03:03.041Z,26.63
2018-06-02T15:05:30.593Z,24.87
2018-06-02T15:07:58.080Z,24.20
2018-06-02T15:10:25.704Z,29.83
2018-06-02T15:12:54.028Z,31.80
2018-06-02T15:15:21.504Z,26.45
2018-06-02T15:17:49.003Z,25.10
2018-06-02T15:20:16.521Z,27.85
2018-06-02T15:22:44.829Z,23.90
2018-06-02T15:25:12.498Z,28.33
2018-06-02T15:27:39.969Z,25.02
2018-06-02T15:30:07.528Z,27.48
2018-06-02T15:32:35.856Z,27.35
2018-06-02T15:35:03.350Z,23.90
2018-06-02T15:37:30.895Z,26.47
2018-06-02T15:39:58.385Z,23.95
2018-06-02T15:42:27.380Z,25.90
2018-06-02T15:44:54.889Z,29.10
2018-06-02T15:47:23.141Z,25.13
2018-06-02T15:49:52.132Z,24.40
2018-06-02T15:52:19.714Z,25.33
2018-06-02T15:54:47.307Z,28.50
2018-06-02T15:57:14.778Z,28.53
2018-06-02T15:59:42.453Z,27.80
2018-06-02T16:02:09.864Z,27.07
2018-06-02T16:04:37.340Z,30.37
2018-06-02T16:07:04.929Z,26.35
2018-06-02T16:09:32.414Z,25.30
2018-06-02T16:11:59.949Z,24.30
2018-06-02T16:14:27.446Z,24.43
2018-06-02T16:16:54.924Z,22.33
2018-06-02T16:19:22.446Z,20.55
2018-06-02T16:21:50.795Z,22.58
2018-06-02T16:24:18.265Z,22.08
2018-06-02T16:26:45.809Z,21.37
2018-06-02T16:29:13.333Z,21.60
2018-06-02T16:31:40.791Z,20.30
2018-06-02T16:34:08.273Z,19.30
2018-06-02T16:36:36.534Z,19.67
2018-06-02T16:39:04.066Z,18.33
2018-06-02T16:41:31.584Z,20.30
2018-06-02T16:43:59.076Z,21.25
2018-06-02T16:46:27.420Z,20.77
2018-06-02T16:48:55.072Z,19.57
2018-06-02T16:51:22.656Z,19.47
2018-06-02T16:53:50.242Z,20.33
2018-06-02T16:56:17.805Z,19.98
2018-06-02T16:58:45.376Z,18.92
2018-06-02T17:01:12.857Z,20.97
2018-06-02T17:03:40.349Z,17.63
2018-06-02T17:06:07.893Z,20.10
2018-06-02T17:08:35.487Z,17.37
2018-06-02T17:11:03.118Z,20.13
2018-06-02T17:13:30.607Z,18.37
2018-06-02T17:15:58.108Z,19.07
2018-06-02T17:18:25.589Z,21.20
2018-06-02T17:20:53.117Z,20.23
2018-06-02T17:23:20.749Z,20.53
2018-06-02T17:25:48.217Z,19.90
2018-06-02T17:28:15.713Z,20.00
2018-06-02T17:30:43.195Z,19.23
2018-06-02T17:33:10.801Z,19.37
2018-06-02T17:35:38.279Z,19.50
2018-06-02T17:38:05.776Z,22.73
2018-06-02T17:40:34.022Z,21.17
2018-06-02T17:43:01.591Z,20.00
2018-06-02T17:45:29.097Z,19.97
2018-06-02T17:47:57.441Z,20.57
2018-06-02T17:50:25.010Z,21.27
2018-06-02T17:52:52.484Z,20.27
2018-06-02T17:55:20.001Z,22.83
2018-06-02T17:57:48.270Z,23.53
2018-06-02T18:00:15.756Z,22.53
2018-06-02T18:02:43.248Z,21.47
2018-06-02T18:05:11.624Z,23.77
2018-06-02T18:07:39.088Z,23.70
2018-06-02T18:10:06.601Z,22.30
2018-06-02T18:12:34.861Z,21.57
2018-06-02T18:15:37.328Z,20.63
2018-06-02T18:18:05.421Z,21.30
2018-06-02T18:20:33.756Z,22.67
2018-06-02T18:23:01.947Z,21.03
2018-06-02T18:25:30.273Z,20.50
2018-06-02T18:27:58.520Z,20.70
2018-06-02T18:30:26.693Z,19.53
2018-06-02T18:32:54.754Z,19.27
2018-06-02T18:35:22.871Z,18.23
2018-06-02T18:37:50.955Z,19.47
2018-06-02T18:40:19.053Z,19.13
2018-06-02T18:42:47.157Z,18.60
2018-06-02T18:45:15.241Z,19.70
2018-06-02T18:47:43.333Z,18.63
2018-06-02T18:50:11.423Z,19.53
2018-06-02T18:52:39.540Z,18.73
2018-06-02T18:55:07.612Z,18.00
2018-06-02T18:57:35.793Z,18.37
2018-06-02T19:00:04.017Z,18.47
2018-06-02T19:02:32.126Z,18.97
2018-06-02T19:05:00.237Z,17.97
2018-06-02T19:07:28.402Z,18.57
2018-06-02T19:09:56.648Z,17.80
2018-06-02T19:12:24.520Z,18.03
2018-06-02T19:14:52.609Z,18.67
2018-06-02T19:17:20.688Z,18.27
2018-06-02T19:19:48.861Z,19.57
2018-06-02T19:22:16.940Z,19.30
2018-06-02T19:24:44.997Z,17.80
2018-06-02T19:27:13.100Z,18.53
2018-06-02T19:29:41.201Z,18.70
2018-06-02T19:32:09.281Z,19.63
2018-06-02T19:34:37.361Z,20.07
2018-06-02T19:37:05.441Z,18.20
2018-06-02T19:39:33.545Z,18.77
2018-06-02T19:42:01.666Z,17.67
2018-06-02T19:44:29.794Z,17.67
2018-06-02T19:46:57.939Z,17.87
2018-06-02T19:49:26.025Z,18.37
2018-06-02T19:51:54.108Z,18.00
2018-06-02T19:54:22.192Z,17.40
2018-06-02T19:56:50.719Z,18.73
2018-06-02T19:59:18.792Z,17.40
2018-06-02T20:01:46.916Z,18.90
2018-06-02T20:04:15.010Z,16.87
2018-06-02T20:06:42.878Z,17.30
2018-06-02T20:09:10.954Z,18.23
2018-06-02T20:11:39.042Z,17.77
2018-06-02T20:14:07.152Z,18.50
2018-06-02T20:16:35.224Z,16.77
2018-06-02T20:19:03.292Z,17.37
2018-06-02T20:21:31.415Z,17.43
2018-06-02T20:23:59.513Z,18.03
2018-06-02T20:26:27.609Z,17.63
2018-06-02T20:28:55.723Z,18.20
2018-06-02T20:31:23.814Z,17.93
2018-06-02T20:33:51.889Z,17.57
2018-06-02T20:36:19.961Z,17.10
2018-06-02T20:38:48.040Z,17.70
2018-06-02T20:41:16.189Z,17.47
2018-06-02T20:43:44.107Z,17.63
2018-06-02T20:46:12.190Z,17.83
2018-06-02T20:48:40.353Z,17.33
2018-06-02T20:51:08.490Z,17.57
2018-06-02T20:53:36.609Z,15.70
2018-06-02T20:56:04.780Z,16.57
2018-06-02T20:58:32.849Z,18.20
2018-06-02T21:01:00.944Z,15.97
2018-06-02T21:03:29.082Z,16.70
2018-06-02T21:05:57.235Z,16.23
2018-06-02T21:08:25.447Z,17.77
2018-06-02T21:10:53.500Z,16.63
2018-06-02T21:13:21.573Z,16.03
2018-06-02T21:15:49.712Z,16.77
2018-06-02T21:18:17.840Z,17.10
2018-06-02T21:20:45.967Z,16.50
2018-06-02T21:23:14.070Z,16.00
2018-06-02T21:25:42.141Z,15.93
2018-06-02T21:28:10.210Z,15.70
2018-06-02T21:30:38.457Z,16.57
2018-06-02T21:33:06.661Z,15.87
2018-06-02T21:35:34.841Z,15.43
2018-06-02T21:38:03.032Z,14.93
2018-06-02T21:40:30.911Z,15.30
2018-06-02T21:42:59.002Z,14.77
2018-06-02T21:45:27.073Z,15.10
2018-06-02T21:47:55.173Z,14.93
2018-06-02T21:50:23.249Z,15.03
2018-06-02T21:52:51.373Z,16.13
2018-06-02T21:55:19.545Z,15.50
2018-06-02T21:57:47.667Z,15.50
2018-06-02T22:00:15.768Z,15.80
2018-06-02T22:02:43.845Z,15.47
2018-06-02T22:05:11.942Z,15.17
2018-06-02T22:07:40.064Z,15.33
2018-06-02T22:10:08.137Z,15.53
2018-06-02T22:12:36.267Z,15.63
2018-06-02T22:15:04.376Z,15.37
2018-06-02T22:17:32.513Z,15.90
2018-06-02T22:20:00.642Z,15.23
2018-06-02T22:22:28.753Z,16.83
2018-06-02T22:24:56.880Z,16.57
2018-06-02T22:27:24.955Z,15.17
2018-06-02T22:29:53.044Z,15.13
2018-06-02T22:32:21.120Z,15.30
2018-06-02T22:34:49.277Z,16.00
2018-06-02T22:37:17.357Z,15.17
2018-06-02T22:39:45.442Z,16.03
2018-06-02T22:42:13.535Z,14.20
2018-06-02T22:44:41.607Z,15.23
2018-06-02T22:47:09.741Z,15.03
2018-06-02T22:49:37.826Z,15.50
2018-06-02T22:52:05.910Z,14.83
2018-06-02T22:54:34.349Z,14.40
2018-06-02T22:57:02.433Z,15.03
2018-06-02T22:59:30.783Z,14.83
2018-06-02T23:01:58.973Z,15.17
2018-06-02T23:04:27.354Z,17.10
2018-06-02T23:06:55.440Z,14.90
2018-06-02T23:09:23.518Z,14.50
2018-06-02T23:11:51.606Z,14.53
2018-06-02T23:14:19.686Z,15.87
2018-06-02T23:16:47.788Z,14.40
2018-06-02T23:19:15.888Z,15.40
2018-06-02T23:21:43.974Z,16.60
2018-06-02T23:24:12.285Z,15.20
2018-06-02T23:26:40.368Z,15.20
2018-06-02T23:29:08.444Z,15.27
2018-06-02T23:31:36.531Z,15.20
2018-06-02T23:34:04.604Z,15.00
2018-06-02T23:36:32.697Z,15.17
2018-06-02T23:39:00.816Z,14.60
2018-06-02T23:41:28.926Z,14.10
2018-06-02T23:43:57.053Z,14.73
2018-06-02T23:46:25.132Z,15.00
2018-06-02T23:48:53.217Z,13.90
2018-06-02T23:51:21.321Z,14.23
2018-06-02T23:53:49.396Z,13.43
2018-06-02T23:56:17.581Z,13.00
2018-06-02T23:58:45.653Z,13.67
